Time;durP1;ratioP1;P1;durP2;ratioP2;P2;SDS_P1;SDS_P2;PMS_P1;PMS_P2;Temp;Humidity;BMP_temperature;BMP_pressure;BME280_temperature;BME280_humidity;BME280_pressure;Samples;Min_cycle;Max_cycle;Signal;HPM_P1;HPM_P2
2022/04/30 00:00:04;;;;;;;1.88;1.20;;;;;;;26.79;26.03;97038.84;4981648;28;20291;-30
2022/04/30 00:02:30;;;;;;;1.30;0.90;;;;;;;26.80;26.04;97034.41;5000371;28;20032;-30
2022/04/30 00:04:55;;;;;;;4.63;1.25;;;;;;;26.80;25.96;97040.53;5002309;28;20032;-30
2022/04/30 00:07:21;;;;;;;1.92;1.20;;;;;;;26.80;25.96;97043.16;5002773;28;20581;-31
2022/04/30 00:09:47;;;;;;;2.47;1.13;;;;;;;26.80;25.99;97040.53;4996453;28;20028;-30
2022/04/30 00:12:13;;;;;;;1.27;1.05;;;;;;;26.80;26.17;97044.91;4994506;28;20127;-31
2022/04/30 00:14:39;;;;;;;2.00;1.15;;;;;;;26.80;26.05;97050.19;4995714;28;21069;-30
2022/04/30 00:17:05;;;;;;;2.72;1.50;;;;;;;26.80;25.96;97050.19;4999970;28;20379;-29
2022/04/30 00:19:30;;;;;;;1.63;1.40;;;;;;;26.80;26.06;97056.28;4996627;28;20490;-29
2022/04/30 00:21:56;;;;;;;2.80;1.15;;;;;;;26.80;26.07;97052.81;5001743;28;20032;-30
2022/04/30 00:24:22;;;;;;;3.05;1.23;;;;;;;26.80;26.06;97056.28;4984819;28;20025;-31
2022/04/30 00:26:48;;;;;;;2.13;1.45;;;;;;;26.81;26.03;97050.09;4992852;28;20036;-32
2022/04/30 00:29:14;;;;;;;4.20;1.30;;;;;;;26.81;25.72;97052.72;4997866;28;20046;-32
2022/04/30 00:31:39;;;;;;;2.90;1.55;;;;;;;26.80;26.03;97045.78;4994219;28;20033;-30
2022/04/30 00:34:04;;;;;;;4.32;1.70;;;;;;;26.80;26.10;97045.78;4996314;28;20155;-31
2022/04/30 00:36:30;;;;;;;2.30;1.50;;;;;;;26.81;26.10;97047.47;4999840;28;20059;-30
2022/04/30 00:38:55;;;;;;;2.05;1.40;;;;;;;26.81;26.10;97041.38;4992684;28;20202;-31
2022/04/30 00:41:23;;;;;;;5.55;1.73;;;;;;;26.81;26.02;97046.66;5003152;28;20028;-31
2022/04/30 00:43:50;;;;;;;1.88;1.40;;;;;;;26.81;26.04;97052.72;5043022;28;20044;-30
2022/04/30 00:46:17;;;;;;;3.70;1.55;;;;;;;26.82;26.04;97038.69;5039849;28;20038;-30
2022/04/30 00:48:43;;;;;;;3.20;1.65;;;;;;;26.81;26.12;97042.22;5038474;28;20036;-30
2022/04/30 00:51:12;;;;;;;2.35;1.63;;;;;;;26.81;26.02;97047.47;5044558;28;20778;-29
2022/04/30 00:53:38;;;;;;;3.63;1.80;;;;;;;26.81;26.01;97042.22;5041377;28;20154;-32
2022/04/30 00:56:05;;;;;;;3.65;1.48;;;;;;;26.80;25.99;97051.03;5016712;28;20849;-29
2022/04/30 00:58:30;;;;;;;2.35;1.73;;;;;;;26.80;26.09;97051.03;5005258;28;20036;-32
2022/04/30 01:00:56;;;;;;;3.08;1.67;;;;;;;26.81;26.03;97055.34;5008941;28;20024;-29
2022/04/30 01:03:22;;;;;;;6.60;2.00;;;;;;;26.80;26.15;97051.03;5025075;28;20487;-30
2022/04/30 01:05:49;;;;;;;6.53;1.90;;;;;;;26.80;26.10;97040.53;5033145;28;20159;-41
2022/04/30 01:08:14;;;;;;;3.38;2.00;;;;;;;26.81;26.12;97041.38;5035306;28;20016;-30
2022/04/30 01:10:39;;;;;;;3.28;1.90;;;;;;;26.81;26.09;97042.22;5040052;28;20043;-30
2022/04/30 01:13:05;;;;;;;3.60;2.13;;;;;;;26.81;26.13;97042.22;5038438;28;20027;-31
2022/04/30 01:15:31;;;;;;;3.60;2.03;;;;;;;26.81;26.11;97047.47;5024285;28;20029;-30
2022/04/30 01:17:56;;;;;;;3.25;2.00;;;;;;;26.81;26.03;97047.47;5036016;28;20040;-31
2022/04/30 01:20:21;;;;;;;2.35;1.58;;;;;;;26.81;26.17;97039.59;5016120;28;20035;-32
2022/04/30 01:23:07;;;;;;;1.67;1.50;;;;;;;26.80;26.08;97040.53;5032765;28;20043;-29
2022/04/30 01:25:33;;;;;;;2.40;1.80;;;;;;;26.80;26.16;97045.78;5034131;28;20071;-28
2022/04/30 01:27:59;;;;;;;4.38;1.88;;;;;;;26.80;26.04;97035.25;5020930;28;20133;-28
2022/04/30 01:30:25;;;;;;;3.05;1.60;;;;;;;26.81;26.13;97031.69;5043031;28;20506;-28
2022/04/30 01:38:20;;;;;;;2.15;1.55;;;;;;;26.79;26.11;97028.31;5035372;28;21166;-28
2022/04/30 01:40:48;;;;;;;3.42;1.70;;;;;;;26.79;26.25;97028.31;5044611;28;20047;-29
2022/04/30 01:43:14;;;;;;;2.40;1.73;;;;;;;26.79;26.16;97024.81;5041061;28;20792;-30
2022/04/30 01:45:39;;;;;;;2.95;1.77;;;;;;;26.78;26.17;97026.63;5016143;28;20044;-30
2022/04/30 01:48:05;;;;;;;2.10;1.90;;;;;;;26.77;26.22;97024.91;5034638;28;20021;-28
2022/04/30 01:50:33;;;;;;;5.53;2.15;;;;;;;26.78;26.11;97026.63;5003807;28;20101;-28
2022/04/30 01:52:58;;;;;;;3.50;1.75;;;;;;;26.79;26.16;97027.44;5042463;28;20032;-29
2022/04/30 01:55:24;;;;;;;2.63;1.85;;;;;;;26.78;26.21;97026.63;5037339;28;20648;-31
2022/04/30 01:57:49;;;;;;;3.70;1.92;;;;;;;26.78;26.22;97016.09;5038024;28;20063;-29
2022/04/30 02:00:15;;;;;;;2.60;1.80;;;;;;;26.78;26.23;97020.50;5035046;28;20032;-29
2022/04/30 02:02:43;;;;;;;3.95;1.88;;;;;;;26.78;26.25;97021.38;5047044;28;20025;-30
2022/04/30 02:05:08;;;;;;;1.88;1.50;;;;;;;26.78;26.29;97012.63;5043577;28;20166;-31
2022/04/30 02:07:37;;;;;;;2.60;1.98;;;;;;;26.79;26.26;97015.16;5037361;28;20024;-32
2022/04/30 02:10:03;;;;;;;2.53;1.73;;;;;;;26.78;26.21;97013.47;5018742;28;20041;-32
2022/04/30 02:12:32;;;;;;;2.80;1.67;;;;;;;26.78;26.02;97010.84;5038192;28;20032;-30
2022/04/30 02:14:57;;;;;;;2.15;1.83;;;;;;;26.79;26.30;97012.53;4997876;28;20032;-28
2022/04/30 02:17:23;;;;;;;4.68;1.88;;;;;;;26.78;26.25;97012.63;5044027;28;20039;-30
2022/04/30 02:22:38;;;;;;;1.60;1.40;;;;;;;26.78;26.25;97007.34;5031728;28;21035;-29
2022/04/30 02:25:09;;;;;;;2.28;1.73;;;;;;;26.78;26.22;97010.84;5015493;28;20115;-29
2022/04/30 02:27:36;;;;;;;3.40;1.90;;;;;;;26.78;26.21;97005.59;5041732;28;20159;-29
2022/04/30 02:30:04;;;;;;;2.95;1.92;;;;;;;26.78;26.34;97004.72;5029613;28;20041;-30
2022/04/30 02:32:48;;;;;;;2.42;1.73;;;;;;;26.78;26.30;97010.84;5040267;28;20025;-30
2022/04/30 02:35:15;;;;;;;2.53;1.65;;;;;;;26.77;26.28;97006.50;5040406;28;20089;-34
2022/04/30 02:37:41;;;;;;;3.28;1.83;;;;;;;26.78;26.33;97005.59;5044635;28;20182;-29
2022/04/30 02:40:07;;;;;;;3.10;1.90;;;;;;;26.78;26.29;96999.47;5043275;28;20090;-33
2022/04/30 02:42:33;;;;;;;3.50;1.83;;;;;;;26.79;26.33;96999.41;5040940;28;20906;-28
2022/04/30 02:44:59;;;;;;;4.63;1.90;;;;;;;26.79;26.36;97002.03;5039699;28;20786;-30
2022/04/30 02:47:25;;;;;;;3.67;1.95;;;;;;;26.79;26.18;96995.91;5042386;28;20727;-30
2022/04/30 02:49:50;;;;;;;4.00;2.03;;;;;;;26.78;26.36;96997.69;5042878;28;20028;-30
2022/04/30 02:52:16;;;;;;;4.25;2.10;;;;;;;26.79;26.39;96996.75;5045571;28;20021;-30
2022/04/30 02:54:41;;;;;;;3.58;2.15;;;;;;;26.78;25.95;96995.06;5042222;28;20726;-30
2022/04/30 02:57:06;;;;;;;1.80;1.58;;;;;;;26.79;26.29;97001.16;5050910;28;20036;-29
2022/04/30 03:02:16;;;;;;;2.83;1.90;;;;;;;26.79;26.44;96995.91;5040246;28;20074;-34
2022/04/30 03:04:41;;;;;;;3.42;1.60;;;;;;;26.78;26.28;97000.34;5045323;28;20591;-30
2022/04/30 03:07:11;;;;;;;3.80;1.70;;;;;;;26.77;26.26;96997.78;5041674;28;20044;-30
2022/04/30 03:09:37;;;;;;;2.67;1.70;;;;;;;26.78;26.33;97000.34;5040369;28;20028;-29
2022/04/30 03:12:02;;;;;;;3.30;2.05;;;;;;;26.77;26.44;97001.25;5040539;28;20887;-30
2022/04/30 03:14:28;;;;;;;2.15;1.55;;;;;;;26.77;26.26;96998.59;5025325;28;20089;-29
2022/04/30 03:22:21;;;;;;;2.78;1.60;;;;;;;26.77;26.44;97003.88;5044676;28;20044;-30
2022/04/30 03:24:47;;;;;;;6.57;2.33;;;;;;;26.77;26.45;97003.03;5040937;28;20672;-30
2022/04/30 03:27:17;;;;;;;3.28;2.00;;;;;;;26.77;26.42;97000.41;5051129;28;20158;-29
2022/04/30 03:29:42;;;;;;;3.03;1.60;;;;;;;26.76;26.30;96996.91;5044610;28;20029;-31
2022/04/30 03:32:08;;;;;;;4.93;1.98;;;;;;;26.77;26.45;97003.88;5041481;28;20051;-29
2022/04/30 03:34:34;;;;;;;3.13;1.42;;;;;;;26.77;26.45;97003.88;5046943;28;20044;-31
2022/04/30 03:36:59;;;;;;;6.20;2.13;;;;;;;26.77;26.34;97003.03;5042983;28;20047;-30
2022/04/30 03:39:25;;;;;;;2.25;1.75;;;;;;;26.76;26.41;97002.19;5025451;28;20543;-31
2022/04/30 03:41:50;;;;;;;2.83;1.95;;;;;;;26.77;26.36;97001.25;5045210;28;20045;-31
2022/04/30 03:44:16;;;;;;;2.35;1.85;;;;;;;26.77;26.46;97013.56;5045693;28;20051;-30
2022/04/30 03:46:41;;;;;;;4.53;1.90;;;;;;;26.77;26.42;97006.50;5048297;28;20463;-30
2022/04/30 03:49:07;;;;;;;3.08;1.80;;;;;;;26.78;26.42;97005.59;5033388;28;20032;-30
2022/04/30 03:51:32;;;;;;;1.67;1.50;;;;;;;26.78;26.43;97010.00;5036627;28;20033;-30
2022/04/30 03:53:57;;;;;;;2.20;1.60;;;;;;;26.78;26.49;97005.59;5043933;28;21048;-31
2022/04/30 03:56:24;;;;;;;2.80;1.98;;;;;;;26.77;26.41;97009.13;5040204;28;20036;-31
2022/04/30 03:58:49;;;;;;;2.22;1.65;;;;;;;26.77;26.69;97009.13;5041431;28;20111;-30
2022/04/30 04:01:18;;;;;;;3.30;1.60;;;;;;;26.75;26.49;97008.38;5018535;28;20080;-31
2022/04/30 04:03:43;;;;;;;2.25;1.42;;;;;;;26.78;26.40;97025.75;5040515;28;20472;-31
2022/04/30 04:06:09;;;;;;;3.80;1.80;;;;;;;26.77;26.45;97014.38;5045810;28;20036;-29
2022/04/30 04:08:35;;;;;;;3.38;1.50;;;;;;;26.76;26.41;97020.59;5018095;28;20036;-32
2022/04/30 04:11:01;;;;;;;2.33;1.48;;;;;;;26.76;26.56;97023.22;5037851;28;20020;-30
2022/04/30 04:18:55;;;;;;;1.88;1.67;;;;;;;26.76;26.61;97028.47;5036039;28;20596;-30
2022/04/30 04:21:20;;;;;;;2.25;1.63;;;;;;;26.75;26.57;97026.78;5038314;28;20033;-29
2022/04/30 04:26:30;;;;;;;4.40;2.20;;;;;;;26.75;26.72;97032.03;5037148;28;20044;-30
2022/04/30 04:28:55;;;;;;;4.97;2.05;;;;;;;26.75;26.76;97032.03;5041097;28;20036;-30
2022/04/30 04:31:22;;;;;;;1.83;1.60;;;;;;;26.74;26.70;97027.72;5044508;28;20024;-33
2022/04/30 04:33:48;;;;;;;3.28;1.70;;;;;;;26.74;26.73;97038.22;5052299;28;20032;-30
2022/04/30 04:36:14;;;;;;;3.65;1.92;;;;;;;26.74;26.61;97038.22;5046807;28;20071;-30
2022/04/30 04:38:39;;;;;;;3.15;1.85;;;;;;;26.74;26.57;97048.75;5043737;28;20021;-30
2022/04/30 04:41:05;;;;;;;3.55;1.75;;;;;;;26.73;26.65;97045.25;5046078;28;20619;-29
2022/04/30 04:43:30;;;;;;;3.65;2.10;;;;;;;26.74;26.54;97051.38;5047153;28;20055;-30
2022/04/30 04:45:55;;;;;;;2.83;1.70;;;;;;;26.74;26.67;97048.75;5042773;28;20048;-29
2022/04/30 04:48:21;;;;;;;3.55;1.65;;;;;;;26.73;26.61;97055.78;5043928;28;20028;-31
2022/04/30 04:50:46;;;;;;;1.90;1.40;;;;;;;26.73;26.56;97053.16;5043237;28;20029;-30
2022/04/30 04:53:12;;;;;;;6.43;3.17;;;;;;;26.74;26.71;97067.16;5044121;28;20051;-29
2022/04/30 04:55:38;;;;;;;3.05;2.00;;;;;;;26.74;26.80;97059.25;5045212;28;20592;-30
2022/04/30 04:58:03;;;;;;;4.22;1.70;;;;;;;26.74;26.83;97067.16;5023663;28;20115;-28
2022/04/30 05:00:28;;;;;;;3.08;1.67;;;;;;;26.73;26.81;97066.28;5042034;28;20056;-29
2022/04/30 05:02:54;;;;;;;2.53;1.65;;;;;;;26.73;26.73;97068.06;5037622;28;20031;-28
2022/04/30 05:05:19;;;;;;;3.13;1.70;;;;;;;26.74;26.73;97075.03;5022537;28;20036;-30
2022/04/30 05:07:45;;;;;;;2.78;1.70;;;;;;;26.73;26.76;97071.56;5040340;28;20052;-30
2022/04/30 05:10:10;;;;;;;2.63;1.58;;;;;;;26.73;26.82;97070.69;5044380;28;20522;-29
2022/04/30 05:12:35;;;;;;;3.30;1.70;;;;;;;26.73;26.77;97075.94;5047160;28;20037;-29
2022/04/30 05:15:01;;;;;;;3.20;1.58;;;;;;;26.72;26.70;97069.00;5044389;28;20082;-30
2022/04/30 05:17:26;;;;;;;2.13;1.52;;;;;;;26.72;26.73;97077.75;5042899;28;20036;-29
2022/04/30 05:19:52;;;;;;;3.38;1.60;;;;;;;26.72;26.76;97080.38;5045515;28;20348;-29
2022/04/30 05:22:18;;;;;;;2.13;1.58;;;;;;;26.73;26.71;97078.56;5041951;28;20040;-37
2022/04/30 05:24:43;;;;;;;2.53;1.48;;;;;;;26.72;26.76;97083.00;5032155;28;20033;-29
2022/04/30 05:27:08;;;;;;;1.48;1.30;;;;;;;26.72;26.59;97080.38;5034602;28;20033;-32
2022/04/30 05:29:35;;;;;;;2.22;1.38;;;;;;;26.71;26.91;97080.44;5039536;28;20029;-32
2022/04/30 05:32:00;;;;;;;1.95;1.30;;;;;;;26.73;26.77;97081.19;5036566;28;21038;-30
2022/04/30 05:34:27;;;;;;;2.88;1.77;;;;;;;26.73;26.73;97083.84;5039207;28;20020;-30
2022/04/30 05:36:53;;;;;;;2.25;1.58;;;;;;;26.73;26.64;97081.19;5040234;28;20153;-30
2022/04/30 05:39:18;;;;;;;1.88;1.52;;;;;;;26.72;26.79;97080.38;5036990;28;20044;-29
2022/04/30 05:41:43;;;;;;;2.00;1.33;;;;;;;26.73;26.71;97081.19;5039675;28;20028;-31
2022/04/30 05:44:09;;;;;;;1.58;1.25;;;;;;;26.72;26.72;97079.50;5041070;28;20093;-30
2022/04/30 05:46:34;;;;;;;3.22;1.20;;;;;;;26.72;26.77;97074.25;5037833;28;20028;-29
2022/04/30 05:49:00;;;;;;;5.20;1.50;;;;;;;26.72;26.80;97079.50;5036983;28;20043;-28
2022/04/30 05:51:25;;;;;;;2.15;1.33;;;;;;;26.73;26.64;97075.94;5042252;28;20025;-30
2022/04/30 05:53:51;;;;;;;3.40;1.25;;;;;;;26.72;26.71;97082.13;5037515;28;20039;-29
2022/04/30 05:56:16;;;;;;;2.22;1.60;;;;;;;26.72;26.73;97079.50;5039588;28;20029;-29
2022/04/30 05:58:42;;;;;;;1.13;0.95;;;;;;;26.72;26.69;97076.88;5039860;28;20029;-30
2022/04/30 06:01:07;;;;;;;4.88;1.50;;;;;;;26.73;26.76;97075.94;5037660;28;20379;-30
2022/04/30 06:03:33;;;;;;;1.30;1.20;;;;;;;26.73;26.77;97081.19;5043447;28;20090;-29
2022/04/30 06:05:59;;;;;;;2.47;1.50;;;;;;;26.72;26.79;97080.38;5041571;28;20491;-30
2022/04/30 06:08:24;;;;;;;1.30;1.20;;;;;;;26.72;26.79;97084.78;5035744;28;21125;-30
2022/04/30 06:10:50;;;;;;;2.33;1.40;;;;;;;26.73;26.67;97086.47;5040161;28;20029;-30
2022/04/30 06:13:15;;;;;;;1.23;1.08;;;;;;;26.72;26.72;97084.78;5024567;28;20391;-29
2022/04/30 06:15:41;;;;;;;1.55;1.08;;;;;;;26.72;26.70;97087.41;5037766;28;20053;-30
2022/04/30 06:18:06;;;;;;;2.92;1.52;;;;;;;26.71;26.74;97081.31;5045618;28;20056;-29
2022/04/30 06:20:32;;;;;;;1.20;1.10;;;;;;;26.71;26.61;97083.06;5034403;28;20052;-30
2022/04/30 06:22:58;;;;;;;2.42;1.02;;;;;;;26.71;26.63;97088.34;5032105;28;20055;-29
2022/04/30 06:25:23;;;;;;;1.20;1.10;;;;;;;26.71;26.69;97085.72;5037301;28;20878;-28
2022/04/30 06:27:49;;;;;;;1.60;1.40;;;;;;;26.70;26.81;97084.84;5033134;28;20105;-31
2022/04/30 06:30:14;;;;;;;1.67;1.27;;;;;;;26.72;26.76;97092.66;5037907;28;20028;-29
2022/04/30 06:32:40;;;;;;;2.58;1.38;;;;;;;26.71;26.86;97091.81;5036988;28;20051;-30
2022/04/30 06:35:05;;;;;;;1.77;1.35;;;;;;;26.71;26.83;97097.09;5020814;28;20105;-30
2022/04/30 06:37:31;;;;;;;2.20;1.50;;;;;;;26.72;26.81;97098.78;5047021;28;20027;-29
2022/04/30 06:39:56;;;;;;;1.85;1.52;;;;;;;26.73;26.79;97102.22;5041666;28;20041;-30
2022/04/30 06:42:21;;;;;;;3.63;1.92;;;;;;;26.74;26.80;97103.97;5040277;28;20069;-30
2022/04/30 06:44:47;;;;;;;2.88;1.70;;;;;;;26.73;26.84;97096.97;5038372;28;20101;-28
2022/04/30 06:47:13;;;;;;;3.58;1.95;;;;;;;26.73;26.85;97104.88;5041516;28;20028;-30
2022/04/30 06:49:39;;;;;;;2.63;1.60;;;;;;;26.73;26.80;97104.88;5031812;28;20048;-31
2022/04/30 06:52:04;;;;;;;4.63;1.65;;;;;;;26.74;26.81;97098.69;5035545;28;20396;-30
2022/04/30 06:57:20;;;;;;;2.22;1.58;;;;;;;26.73;26.80;97110.97;5037536;28;20044;-31
2022/04/30 06:59:45;;;;;;;3.50;1.63;;;;;;;26.73;26.94;97108.34;5035288;28;20033;-30
2022/04/30 07:02:18;;;;;;;4.63;2.00;;;;;;;26.73;26.77;97112.75;5035381;28;20029;-29
2022/04/30 07:04:44;;;;;;;4.40;1.70;;;;;;;26.73;26.92;97107.50;5041788;28;20086;-29
2022/04/30 07:07:10;;;;;;;3.85;2.10;;;;;;;26.72;26.87;97109.28;5022043;28;20093;-30
2022/04/30 07:09:35;;;;;;;4.72;1.80;;;;;;;26.74;26.93;97109.22;5048650;28;20528;-31
2022/04/30 07:12:06;;;;;;;4.57;2.25;;;;;;;26.73;26.87;97107.50;5043715;28;20028;-29
2022/04/30 07:14:35;;;;;;;7.07;2.10;;;;;;;26.73;26.85;97112.75;5046631;28;20077;-30
2022/04/30 07:17:04;;;;;;;3.45;2.13;;;;;;;26.73;26.96;97110.13;5047956;28;20082;-30
2022/04/30 07:19:29;;;;;;;6.07;1.92;;;;;;;26.72;26.83;97113.69;5048625;28;20510;-30
2022/04/30 07:21:55;;;;;;;4.65;1.88;;;;;;;26.73;27.02;97115.38;5043277;28;20058;-29
2022/04/30 07:24:20;;;;;;;6.63;2.55;;;;;;;26.72;26.96;97117.19;5046531;28;20077;-30
2022/04/30 07:26:45;;;;;;;5.53;2.80;;;;;;;26.72;27.06;97113.69;5045411;28;20028;-29
2022/04/30 07:29:11;;;;;;;5.50;2.47;;;;;;;26.72;27.01;97111.06;5045134;28;20036;-29
2022/04/30 07:31:36;;;;;;;5.20;2.30;;;;;;;26.73;27.01;97118.00;5047124;28;20032;-29
2022/04/30 07:34:02;;;;;;;7.70;2.97;;;;;;;26.72;26.93;97113.69;5048959;28;21650;-30
2022/04/30 07:36:28;;;;;;;7.18;2.80;;;;;;;26.72;26.96;97114.53;5047524;28;20036;-31
2022/04/30 07:38:55;;;;;;;6.25;2.88;;;;;;;26.73;27.01;97118.00;5037158;28;20025;-31
2022/04/30 07:41:20;;;;;;;5.13;2.50;;;;;;;26.72;27.07;97122.44;5039268;28;20540;-29
2022/04/30 07:43:46;;;;;;;4.60;2.50;;;;;;;26.72;27.10;97121.56;5037165;28;20036;-30
2022/04/30 07:46:11;;;;;;;5.47;3.00;;;;;;;26.72;27.05;97121.56;5035796;28;20032;-32
2022/04/30 07:48:36;;;;;;;5.30;2.53;;;;;;;26.73;27.18;97123.25;5035948;28;20025;-30
2022/04/30 07:51:02;;;;;;;6.50;2.88;;;;;;;26.73;27.02;97123.25;5031862;28;20095;-30
2022/04/30 07:53:28;;;;;;;5.70;2.90;;;;;;;26.72;27.12;97122.44;5037788;28;20020;-29
2022/04/30 07:55:54;;;;;;;6.97;3.05;;;;;;;26.72;27.16;97121.56;5036424;28;20048;-30
2022/04/30 07:58:20;;;;;;;5.68;2.88;;;;;;;26.72;27.18;97121.56;5039431;28;20032;-31
2022/04/30 08:00:45;;;;;;;4.57;2.55;;;;;;;26.72;27.27;97124.19;5038650;28;20029;-29
2022/04/30 08:03:11;;;;;;;5.88;2.80;;;;;;;26.72;27.31;97126.84;5040546;28;20024;-30
2022/04/30 08:05:37;;;;;;;8.32;2.83;;;;;;;26.72;27.17;97127.69;5040211;28;20028;-31
2022/04/30 08:08:03;;;;;;;4.85;2.63;;;;;;;26.72;27.42;97124.19;5041945;28;20093;-30
2022/04/30 08:10:29;;;;;;;7.55;2.85;;;;;;;26.72;27.30;97129.47;5040734;28;20029;-33
2022/04/30 08:12:55;;;;;;;4.38;2.53;;;;;;;26.72;27.31;97127.69;5037857;28;20453;-30
2022/04/30 08:15:22;;;;;;;4.95;2.53;;;;;;;26.72;27.41;97129.47;5036698;28;20020;-31
2022/04/30 08:17:47;;;;;;;3.40;2.20;;;;;;;26.72;27.40;97121.56;5039393;28;20094;-29
2022/04/30 08:20:12;;;;;;;5.03;2.65;;;;;;;26.72;27.31;97127.69;5031029;28;20028;-31
2022/04/30 08:22:38;;;;;;;4.28;2.38;;;;;;;26.73;27.23;97123.25;5036752;28;20028;-31
2022/04/30 08:25:04;;;;;;;4.25;2.50;;;;;;;26.72;27.37;97122.44;5034570;28;20055;-29
2022/04/30 08:27:29;;;;;;;3.70;2.42;;;;;;;26.73;27.41;97129.38;5039555;28;20066;-29
2022/04/30 08:29:54;;;;;;;4.35;2.55;;;;;;;26.73;27.39;97133.78;5037521;28;20060;-30
2022/04/30 08:32:26;;;;;;;5.63;2.80;;;;;;;26.73;27.42;97128.53;5035717;28;20171;-29
2022/04/30 08:34:52;;;;;;;5.10;2.53;;;;;;;26.74;27.46;97138.13;5028641;28;20035;-30
2022/04/30 08:37:17;;;;;;;4.78;2.60;;;;;;;26.73;27.52;97137.28;5040362;28;20139;-31
2022/04/30 08:39:44;;;;;;;4.22;2.42;;;;;;;26.74;27.44;97138.13;5040768;28;20755;-30
2022/04/30 08:42:09;;;;;;;7.50;2.63;;;;;;;26.74;27.63;97135.50;5043338;28;20032;-30
2022/04/30 08:44:37;;;;;;;6.38;2.50;;;;;;;26.74;27.40;97140.75;5018848;28;20103;-29
2022/04/30 08:47:03;;;;;;;16.58;5.15;;;;;;;26.73;27.67;97134.66;5022040;28;20032;-31
2022/04/30 08:49:30;;;;;;;7.85;5.93;;;;;;;26.64;27.58;97139.50;5018468;28;20028;-30
2022/04/30 08:51:55;;;;;;;6.82;5.68;;;;;;;26.52;27.52;97147.13;5026554;28;20024;-29
2022/04/30 08:54:21;;;;;;;17.83;6.00;;;;;;;26.38;27.79;97133.81;5016049;28;20083;-32
2022/04/30 08:56:53;;;;;;;14.52;4.45;;;;;;;26.27;27.87;97132.56;5040297;28;21945;-29
2022/04/30 08:59:18;;;;;;;6.88;3.95;;;;;;;26.20;28.13;97132.00;5034754;28;20043;-31
2022/04/30 09:01:45;;;;;;;7.03;3.03;;;;;;;26.18;28.11;97125.13;5034802;28;20029;-30
2022/04/30 09:04:10;;;;;;;6.90;2.63;;;;;;;26.17;28.02;97132.16;5030071;28;20020;-29
2022/04/30 09:06:44;;;;;;;5.90;2.70;;;;;;;26.17;28.08;97126.91;5036407;28;20040;-30
2022/04/30 09:09:09;;;;;;;8.45;3.05;;;;;;;26.15;28.17;97131.38;5033456;28;21008;-30
2022/04/30 09:11:37;;;;;;;7.82;2.97;;;;;;;26.19;28.15;97129.44;5033627;28;20043;-31
2022/04/30 09:14:03;;;;;;;4.00;2.42;;;;;;;26.20;28.15;97131.16;5012076;28;20075;-30
2022/04/30 09:16:28;;;;;;;8.65;2.58;;;;;;;26.22;28.09;97121.41;5033848;28;20028;-32
2022/04/30 09:19:00;;;;;;;2.92;2.28;;;;;;;26.23;28.16;97120.47;5033691;28;20078;-30
2022/04/30 09:21:25;;;;;;;2.90;1.80;;;;;;;26.24;28.18;97132.72;5019182;28;20029;-30
2022/04/30 09:23:51;;;;;;;7.57;2.17;;;;;;;26.26;28.17;97130.88;5040933;28;20851;-29
2022/04/30 09:26:16;;;;;;;5.80;2.28;;;;;;;26.25;28.20;97123.91;5040153;28;20024;-31
2022/04/30 09:28:42;;;;;;;5.45;2.55;;;;;;;26.29;28.09;97130.72;5041184;28;20025;-30
2022/04/30 09:31:12;;;;;;;7.05;2.85;;;;;;;26.31;28.21;97126.22;5011254;28;20041;-29
2022/04/30 09:33:39;;;;;;;7.90;2.30;;;;;;;26.34;28.19;97128.72;5044571;28;20083;-31
2022/04/30 09:38:50;;;;;;;8.15;2.40;;;;;;;26.38;28.18;97126.78;5043087;28;20792;-28
2022/04/30 09:41:23;;;;;;;9.45;2.67;;;;;;;26.39;28.25;97130.25;5026099;28;20028;-29
2022/04/30 09:44:04;;;;;;;7.40;2.38;;;;;;;26.42;28.24;97127.47;5035913;28;21005;-29
2022/04/30 09:46:30;;;;;;;7.53;2.47;;;;;;;26.44;28.21;97125.63;5047963;28;20490;-30
2022/04/30 09:54:26;;;;;;;5.13;2.53;;;;;;;26.49;28.10;97115.72;5007257;28;20032;-32
2022/04/30 09:56:51;;;;;;;5.15;2.30;;;;;;;26.51;28.19;97118.28;5031226;28;20471;-29
2022/04/30 09:59:17;;;;;;;3.25;2.10;;;;;;;26.52;28.25;97119.97;5020538;28;20032;-29
2022/04/30 10:01:44;;;;;;;6.05;2.30;;;;;;;26.53;28.08;97122.53;5038038;28;20035;-30
2022/04/30 10:04:11;;;;;;;7.90;1.98;;;;;;;26.54;28.06;97113.72;5039669;28;20562;-28
2022/04/30 10:06:49;;;;;;;12.90;3.65;;;;;;;26.56;28.14;97119.75;5034433;28;20047;-28
2022/04/30 10:09:19;;;;;;;5.32;2.38;;;;;;;26.57;28.04;97117.94;5015681;28;20579;-30
2022/04/30 10:12:12;;;;;;;9.02;2.40;;;;;;;26.57;28.08;97118.81;5022091;28;20034;-29
2022/04/30 10:14:44;;;;;;;5.25;2.10;;;;;;;26.59;28.00;97116.94;5024349;28;20131;-28
2022/04/30 10:19:35;;;;;;;2.75;2.00;;;;;;;26.60;28.11;97117.81;5027979;28;20024;-30
2022/04/30 10:22:14;;;;;;;2.40;2.03;;;;;;;26.61;28.00;97124.75;5042103;28;21498;-28
2022/04/30 10:24:47;;;;;;;5.05;2.17;;;;;;;26.63;28.10;97117.66;5024009;28;20172;-29
2022/04/30 10:27:13;;;;;;;4.05;1.92;;;;;;;26.64;28.04;97118.50;5040638;28;20086;-33
2022/04/30 10:29:53;;;;;;;6.18;2.20;;;;;;;26.67;27.98;97113.09;5038364;28;20051;-28
2022/04/30 10:32:31;;;;;;;4.78;1.88;;;;;;;26.69;27.98;97111.25;5048248;28;20039;-30
2022/04/30 10:34:57;;;;;;;5.05;2.08;;;;;;;26.69;28.02;97100.72;5034896;28;21289;-29
2022/04/30 10:37:28;;;;;;;3.63;1.88;;;;;;;26.71;28.07;97104.09;5039709;28;20035;-29
2022/04/30 10:39:57;;;;;;;;;;;;;;;26.72;28.12;97111.06;5040363;28;20127;-28
2022/04/30 10:42:42;;;;;;;3.85;2.25;;;;;;;26.73;28.03;97118.00;5032957;28;20836;-29
2022/04/30 10:45:15;;;;;;;5.43;1.83;;;;;;;26.74;28.10;97109.22;5037547;28;21003;-29
2022/04/30 10:47:55;;;;;;;7.53;2.45;;;;;;;26.75;28.14;97108.28;5045082;28;20044;-27
2022/04/30 10:50:21;;;;;;;5.82;1.98;;;;;;;26.75;28.25;97110.91;5033516;28;20029;-28
2022/04/30 10:52:48;;;;;;;8.95;2.17;;;;;;;26.77;28.29;97110.84;5033757;28;20502;-28
2022/04/30 10:55:13;;;;;;;8.00;1.92;;;;;;;26.76;28.38;97112.59;5015375;28;20036;-31
2022/04/30 10:57:45;;;;;;;5.05;2.00;;;;;;;26.73;29.32;97103.09;5017215;28;20242;-29
2022/04/30 11:00:11;;;;;;;5.80;2.10;;;;;;;26.74;29.49;97119.72;5036973;28;20372;-29
2022/04/30 11:02:36;;;;;;;7.60;2.08;;;;;;;26.73;29.54;97112.75;5040796;28;20042;-29
2022/04/30 11:05:02;;;;;;;5.72;2.20;;;;;;;26.76;29.86;97107.34;5039042;28;21935;-28
2022/04/30 11:07:29;;;;;;;10.68;1.63;;;;;;;26.81;29.95;97113.22;5037081;28;20029;-30
2022/04/30 11:09:55;;;;;;;9.50;1.80;;;;;;;26.88;29.93;97106.72;5040298;28;20043;-30
2022/04/30 11:12:20;;;;;;;18.95;2.60;;;;;;;26.99;29.60;97100.06;5037503;28;20051;-29
2022/04/30 11:14:46;;;;;;;5.63;1.70;;;;;;;27.10;29.24;97105.59;5020173;28;20033;-31
2022/04/30 11:17:11;;;;;;;5.80;2.20;;;;;;;27.19;29.31;97103.41;5041423;28;20859;-29
2022/04/30 11:19:43;;;;;;;9.73;1.92;;;;;;;27.30;28.97;97100.19;5044769;28;20110;-31
2022/04/30 11:22:09;;;;;;;3.13;1.70;;;;;;;27.39;28.52;97095.25;5036447;28;20025;-32
2022/04/30 11:24:34;;;;;;;5.50;1.80;;;;;;;27.48;28.29;97090.41;5046187;28;20024;-30
2022/04/30 11:27:03;;;;;;;2.90;1.77;;;;;;;27.55;28.16;97089.16;5045917;28;20118;-32
2022/04/30 11:29:28;;;;;;;8.45;2.75;;;;;;;27.62;28.04;97082.63;5043157;28;20087;-29
2022/04/30 11:31:55;;;;;;;9.20;4.03;;;;;;;27.69;27.94;97085.75;5042507;28;20202;-30
2022/04/30 11:34:20;;;;;;;9.18;3.35;;;;;;;27.75;27.93;97080.16;5044009;28;20036;-29
2022/04/30 11:36:50;;;;;;;11.30;4.15;;;;;;;27.82;27.84;97079.81;5041513;28;20125;-30
2022/04/30 11:39:17;;;;;;;16.20;6.82;;;;;;;27.87;28.20;97072.47;5021892;28;20691;-30
2022/04/30 11:41:44;;;;;;;14.75;5.63;;;;;;;27.91;27.87;97072.22;5044400;28;20129;-32
2022/04/30 11:44:10;;;;;;;13.45;5.97;;;;;;;27.96;27.89;97077.22;5042254;28;20035;-30
2022/04/30 11:46:37;;;;;;;9.52;5.25;;;;;;;28.01;27.90;97071.69;5043467;28;20020;-29
2022/04/30 11:49:19;;;;;;;13.02;6.05;;;;;;;28.04;27.78;97074.16;5046662;28;20033;-30
2022/04/30 11:51:45;;;;;;;20.73;6.35;;;;;;;28.08;27.96;97075.69;5042878;28;20035;-30
2022/04/30 11:54:12;;;;;;;17.83;7.03;;;;;;;28.11;27.71;97072.03;5016526;28;20751;-29
2022/04/30 11:56:38;;;;;;;16.60;6.55;;;;;;;28.13;27.66;97068.34;5041161;28;20029;-31
2022/04/30 11:59:05;;;;;;;19.20;8.27;;;;;;;28.16;27.70;97068.19;5022043;28;20106;-28
2022/04/30 12:01:33;;;;;;;19.77;7.60;;;;;;;28.18;27.46;97071.56;5024198;28;20111;-35
2022/04/30 12:04:04;;;;;;;19.50;7.80;;;;;;;28.21;27.43;97077.56;5023544;28;20451;-29
2022/04/30 12:06:30;;;;;;;21.80;10.05;;;;;;;28.24;27.71;97080.03;5035038;28;20050;-29
2022/04/30 12:08:55;;;;;;;16.02;8.27;;;;;;;28.26;27.41;97072.94;5046937;28;20036;-29